Ellington Field
KEFD : now visible

Airfield :











YOU CAN JOIN US ON...

 
LOGIN :

Register | Disclaimer

   EN    FR    IT 

 









Legend :    VFR   Marginal VFR   IFR   Intensive IFR   Very Intensive IFR
Visi :
Ceiling :
>= 8 km
>= 3000ft
5 to 8 km
1000 to 3000 ft
1500m to 5 km
500 to 1000 ft
800 to 1500m
200 to 500 ft
< 800m
< 200 ft
Symbols :   Thunderstorms  Fog  Heavy snow  Heavy precipitations  Wind > 20 kt






- Airport Elevation : 32 ft


KEFD - Ellington Field

CURRENT METAR :
  • 062350Z 10006KT 4SM BR OVC006 23/22 A2995

EXPIRED METARs :
  • 062250Z 09006KT 4SM BR OVC006 23/22 A2995
  • 062150Z 10009KT 4SM BR OVC006 23/22 A2996

TAF TAF KEFD
Valid from the 06 at 20:00 until the 08 at 02:00 UTC


062000Z 0620/0802 12010KT 4800 BR OVC006 QNH2994INS
BECMG 0701/0702 13009KT 8000 -SHRA OVC003 QNH2993INS
BECMG 0716/0717 VRB06KT 8000 BR SCT004 QNH2998INS
BECMG 0719/0720 21012KT 9999 NSW SCT030 QNH2989INS
BECMG 0723/0724 19010G15KT 9999 FEW025 QNH2987INS TX24/0621Z TN22/0712Z



MET'MAP, your aeronautical weather chart ! - Copyright ORBIFLY December 2007 - Disclaimer

ORBIFLY MET'MAP TEAM :

Programming & Development : Alexandra Zaïnal
Concept & original design : Baudouin d'Aumeries
Assistance for programming : Marc-Olivier Méhu
Technical & hardware support : Manuel Goepfert

Contact : metmap@orbifly.com




SOURCES & CREDITS :

   NOAA       Earth
Advisory